sensor_id;sensor_type;location;lat;lon;timestamp;pressure;altitude;pressure_sealevel;temperature;humidity
74936;BME280;63501;55.570;37.488;2023-05-07T00:01:13;100079.56;;;-0.78;62.52
74936;BME280;63501;55.570;37.488;2023-05-07T00:03:40;100080.97;;;-0.81;62.33
74936;BME280;63501;55.570;37.488;2023-05-07T00:06:07;100076.16;;;-0.84;61.89
74936;BME280;63501;55.570;37.488;2023-05-07T00:08:35;100080.75;;;-0.85;62.24
74936;BME280;63501;55.570;37.488;2023-05-07T00:11:03;100078.34;;;-0.86;62.58
74936;BME280;63501;55.570;37.488;2023-05-07T00:13:31;100082.16;;;-0.87;61.97
74936;BME280;63501;55.570;37.488;2023-05-07T00:16:01;100080.03;;;-0.90;61.98
74936;BME280;63501;55.570;37.488;2023-05-07T00:18:28;100083.06;;;-0.92;62.23
74936;BME280;63501;55.570;37.488;2023-05-07T00:20:55;100084.47;;;-0.94;62.87
74936;BME280;63501;55.570;37.488;2023-05-07T00:23:23;100080.44;;;-0.97;62.66
74936;BME280;63501;55.570;37.488;2023-05-07T00:25:50;100082.34;;;-0.97;62.42
74936;BME280;63501;55.570;37.488;2023-05-07T00:28:17;100080.75;;;-0.98;63.41
74936;BME280;63501;55.570;37.488;2023-05-07T00:30:45;100085.16;;;-1.02;63.13
74936;BME280;63501;55.570;37.488;2023-05-07T00:33:12;100082.75;;;-1.04;62.92
74936;BME280;63501;55.570;37.488;2023-05-07T00:35:39;100084.97;;;-1.06;63.58
74936;BME280;63501;55.570;37.488;2023-05-07T00:38:06;100088.75;;;-1.07;63.43
74936;BME280;63501;55.570;37.488;2023-05-07T00:40:33;100090.97;;;-1.09;62.98
74936;BME280;63501;55.570;37.488;2023-05-07T00:43:00;100093.69;;;-1.09;63.08
74936;BME280;63501;55.570;37.488;2023-05-07T00:45:28;100093.19;;;-1.11;63.23
74936;BME280;63501;55.570;37.488;2023-05-07T00:47:58;100088.63;;;-1.16;63.63
74936;BME280;63501;55.570;37.488;2023-05-07T00:50:26;100093.25;;;-1.16;63.68
74936;BME280;63501;55.570;37.488;2023-05-07T00:52:53;100089.75;;;-1.17;63.78
74936;BME280;63501;55.570;37.488;2023-05-07T00:55:23;100090.34;;;-1.20;64.00
74936;BME280;63501;55.570;37.488;2023-05-07T00:57:50;100091.94;;;-1.19;64.05
74936;BME280;63501;55.570;37.488;2023-05-07T01:00:18;100091.75;;;-1.22;63.79
74936;BME280;63501;55.570;37.488;2023-05-07T01:02:45;100092.03;;;-1.24;64.32
74936;BME280;63501;55.570;37.488;2023-05-07T01:05:15;100093.44;;;-1.26;64.18
74936;BME280;63501;55.570;37.488;2023-05-07T01:07:43;100089.41;;;-1.29;64.39
74936;BME280;63501;55.570;37.488;2023-05-07T01:10:11;100088.59;;;-1.29;64.20
74936;BME280;63501;55.570;37.488;2023-05-07T01:12:40;100093.50;;;-1.31;64.58
74936;BME280;63501;55.570;37.488;2023-05-07T01:15:09;100094.63;;;-1.33;64.79
74936;BME280;63501;55.570;37.488;2023-05-07T01:17:38;100101.97;;;-1.33;64.89
74936;BME280;63501;55.570;37.488;2023-05-07T01:20:07;100106.84;;;-1.35;64.45
74936;BME280;63501;55.570;37.488;2023-05-07T01:22:37;100104.75;;;-1.38;64.58
74936;BME280;63501;55.570;37.488;2023-05-07T01:25:06;100099.91;;;-1.41;64.37
74936;BME280;63501;55.570;37.488;2023-05-07T01:27:33;100107.53;;;-1.43;65.15
74936;BME280;63501;55.570;37.488;2023-05-07T01:30:01;100103.22;;;-1.44;65.16
74936;BME280;63501;55.570;37.488;2023-05-07T01:32:33;100103.53;;;-1.46;65.51
74936;BME280;63501;55.570;37.488;2023-05-07T01:35:04;100109.53;;;-1.49;64.85
74936;BME280;63501;55.570;37.488;2023-05-07T01:37:32;100110.31;;;-1.48;65.24
74936;BME280;63501;55.570;37.488;2023-05-07T01:40:02;100114.16;;;-1.49;65.71
74936;BME280;63501;55.570;37.488;2023-05-07T01:42:30;100117.16;;;-1.51;65.71
74936;BME280;63501;55.570;37.488;2023-05-07T01:45:19;100114.72;;;-1.52;65.67
74936;BME280;63501;55.570;37.488;2023-05-07T01:47:47;100124.75;;;-1.53;65.60
74936;BME280;63501;55.570;37.488;2023-05-07T01:50:17;100124.75;;;-1.53;65.99
74936;BME280;63501;55.570;37.488;2023-05-07T01:52:45;100131.78;;;-1.52;66.01
74936;BME280;63501;55.570;37.488;2023-05-07T01:55:13;100130.72;;;-1.51;65.85
74936;BME280;63501;55.570;37.488;2023-05-07T01:57:40;100138.06;;;-1.51;65.89
74936;BME280;63501;55.570;37.488;2023-05-07T02:00:08;100132.63;;;-1.51;66.17
74936;BME280;63501;55.570;37.488;2023-05-07T02:02:35;100137.75;;;-1.50;66.44
74936;BME280;63501;55.570;37.488;2023-05-07T02:05:04;100138.56;;;-1.49;66.74
74936;BME280;63501;55.570;37.488;2023-05-07T02:07:31;100133.94;;;-1.49;66.02
74936;BME280;63501;55.570;37.488;2023-05-07T02:09:58;100142.06;;;-1.49;66.55
74936;BME280;63501;55.570;37.488;2023-05-07T02:12:26;100146.38;;;-1.48;66.63
74936;BME280;63501;55.570;37.488;2023-05-07T02:14:53;100147.19;;;-1.47;66.43
74936;BME280;63501;55.570;37.488;2023-05-07T02:17:21;100152.63;;;-1.47;66.48
74936;BME280;63501;55.570;37.488;2023-05-07T02:19:48;100148.00;;;-1.47;67.45
74936;BME280;63501;55.570;37.488;2023-05-07T02:22:34;100151.50;;;-1.46;66.64
74936;BME280;63501;55.570;37.488;2023-05-07T02:25:01;100150.94;;;-1.43;66.42
74936;BME280;63501;55.570;37.488;2023-05-07T02:27:30;100151.16;;;-1.40;66.74
74936;BME280;63501;55.570;37.488;2023-05-07T02:29:57;100153.56;;;-1.38;66.80
74936;BME280;63501;55.570;37.488;2023-05-07T02:32:24;100147.28;;;-1.34;66.73
74936;BME280;63501;55.570;37.488;2023-05-07T02:34:51;100143.94;;;-1.30;66.61
74936;BME280;63501;55.570;37.488;2023-05-07T02:37:18;100149.31;;;-1.25;66.73
74936;BME280;63501;55.570;37.488;2023-05-07T02:39:45;100154.16;;;-1.22;66.49
74936;BME280;63501;55.570;37.488;2023-05-07T02:42:12;100151.34;;;-1.17;67.04
74936;BME280;63501;55.570;37.488;2023-05-07T02:44:40;100155.38;;;-1.15;66.87
74936;BME280;63501;55.570;37.488;2023-05-07T02:47:07;100164.25;;;-1.09;66.90
74936;BME280;63501;55.570;37.488;2023-05-07T02:49:35;100159.53;;;-1.03;66.72
74936;BME280;63501;55.570;37.488;2023-05-07T02:52:02;100165.69;;;-0.98;67.04
74936;BME280;63501;55.570;37.488;2023-05-07T02:54:29;100169.34;;;-0.89;67.04
74936;BME280;63501;55.570;37.488;2023-05-07T02:56:56;100168.94;;;-0.82;67.22
74936;BME280;63501;55.570;37.488;2023-05-07T02:59:24;100162.81;;;-0.74;66.49
74936;BME280;63501;55.570;37.488;2023-05-07T03:01:53;100167.59;;;-0.66;66.67
74936;BME280;63501;55.570;37.488;2023-05-07T03:04:20;100169.59;;;-0.58;65.73
74936;BME280;63501;55.570;37.488;2023-05-07T03:06:47;100181.19;;;-0.52;65.95
74936;BME280;63501;55.570;37.488;2023-05-07T03:09:14;100173.47;;;-0.45;65.97
74936;BME280;63501;55.570;37.488;2023-05-07T03:11:42;100173.06;;;-0.38;66.38
74936;BME280;63501;55.570;37.488;2023-05-07T03:14:09;100174.56;;;-0.32;66.21
74936;BME280;63501;55.570;37.488;2023-05-07T03:16:36;100173.69;;;-0.28;65.87
74936;BME280;63501;55.570;37.488;2023-05-07T03:19:04;100175.97;;;-0.21;65.69
74936;BME280;63501;55.570;37.488;2023-05-07T03:21:31;100183.25;;;-0.16;65.99
74936;BME280;63501;55.570;37.488;2023-05-07T03:23:59;100179.59;;;-0.12;65.61
74936;BME280;63501;55.570;37.488;2023-05-07T03:26:26;100189.28;;;-0.06;65.54
74936;BME280;63501;55.570;37.488;2023-05-07T03:28:54;100191.06;;;-0.01;65.38
74936;BME280;63501;55.570;37.488;2023-05-07T03:31:21;100184.13;;;0.07;65.53
74936;BME280;63501;55.570;37.488;2023-05-07T03:33:51;100187.56;;;0.12;65.20
74936;BME280;63501;55.570;37.488;2023-05-07T03:36:20;100188.25;;;0.18;65.66
74936;BME280;63501;55.570;37.488;2023-05-07T03:38:48;100190.88;;;0.23;65.19
74936;BME280;63501;55.570;37.488;2023-05-07T03:41:16;100191.56;;;0.29;65.12
74936;BME280;63501;55.570;37.488;2023-05-07T03:43:43;100188.72;;;0.34;65.05
74936;BME280;63501;55.570;37.488;2023-05-07T03:46:10;100190.03;;;0.36;64.04
74936;BME280;63501;55.570;37.488;2023-05-07T03:48:37;100200.00;;;0.41;64.46
74936;BME280;63501;55.570;37.488;2023-05-07T03:51:04;100203.31;;;0.51;63.64
74936;BME280;63501;55.570;37.488;2023-05-07T03:53:32;100196.81;;;0.61;64.40
74936;BME280;63501;55.570;37.488;2023-05-07T03:55:59;100206.38;;;0.72;64.64
74936;BME280;63501;55.570;37.488;2023-05-07T03:58:26;100199.88;;;0.82;63.96
74936;BME280;63501;55.570;37.488;2023-05-07T04:00:53;100209.13;;;0.95;63.68
74936;BME280;63501;55.570;37.488;2023-05-07T04:03:20;100204.66;;;0.99;63.37
74936;BME280;63501;55.570;37.488;2023-05-07T04:05:47;100212.53;;;1.00;63.90
74936;BME280;63501;55.570;37.488;2023-05-07T04:08:14;100216.56;;;1.03;63.40
74936;BME280;63501;55.570;37.488;2023-05-07T04:10:43;100216.44;;;1.08;63.74
74936;BME280;63501;55.570;37.488;2023-05-07T04:13:09;100220.00;;;1.17;63.39
74936;BME280;63501;55.570;37.488;2023-05-07T04:15:36;100223.63;;;1.26;62.60
74936;BME280;63501;55.570;37.488;2023-05-07T04:18:03;100226.09;;;1.37;62.44
74936;BME280;63501;55.570;37.488;2023-05-07T04:20:30;100226.13;;;1.45;62.75
74936;BME280;63501;55.570;37.488;2023-05-07T04:23:01;100227.81;;;1.55;62.53
74936;BME280;63501;55.570;37.488;2023-05-07T04:25:28;100215.31;;;1.63;61.93
74936;BME280;63501;55.570;37.488;2023-05-07T04:27:57;100223.88;;;1.70;62.26
74936;BME280;63501;55.570;37.488;2023-05-07T04:30:24;100229.38;;;1.78;61.86
74936;BME280;63501;55.570;37.488;2023-05-07T04:32:51;100221.06;;;1.83;61.73
74936;BME280;63501;55.570;37.488;2023-05-07T04:35:18;100228.28;;;1.88;61.10
74936;BME280;63501;55.570;37.488;2023-05-07T04:37:45;100223.31;;;1.90;60.88
74936;BME280;63501;55.570;37.488;2023-05-07T04:40:13;100225.09;;;1.95;61.23
74936;BME280;63501;55.570;37.488;2023-05-07T04:42:40;100229.81;;;2.03;60.96
74936;BME280;63501;55.570;37.488;2023-05-07T04:45:09;100239.31;;;2.14;60.17
74936;BME280;63501;55.570;37.488;2023-05-07T04:47:37;100231.47;;;2.21;60.64
74936;BME280;63501;55.570;37.488;2023-05-07T04:50:06;100223.91;;;2.18;59.59
74936;BME280;63501;55.570;37.488;2023-05-07T04:52:33;100232.09;;;2.18;59.26
74936;BME280;63501;55.570;37.488;2023-05-07T04:55:01;100229.41;;;2.27;59.33
74936;BME280;63501;55.570;37.488;2023-05-07T04:57:28;100233.13;;;2.39;59.29
74936;BME280;63501;55.570;37.488;2023-05-07T04:59:55;100224.97;;;2.48;59.36
74936;BME280;63501;55.570;37.488;2023-05-07T05:02:24;100224.66;;;2.58;58.43
74936;BME280;63501;55.570;37.488;2023-05-07T05:04:50;100238.50;;;2.71;58.42
74936;BME280;63501;55.570;37.488;2023-05-07T05:07:17;100233.53;;;2.81;58.40
74936;BME280;63501;55.570;37.488;2023-05-07T05:09:44;100233.69;;;2.94;58.08
74936;BME280;63501;55.570;37.488;2023-05-07T05:12:11;100228.84;;;3.08;57.78
74936;BME280;63501;55.570;37.488;2023-05-07T05:14:38;100231.56;;;3.25;57.50
74936;BME280;63501;55.570;37.488;2023-05-07T05:17:05;100226.41;;;3.41;56.99
74936;BME280;63501;55.570;37.488;2023-05-07T05:19:34;100224.31;;;3.55;56.42
74936;BME280;63501;55.570;37.488;2023-05-07T05:22:01;100223.97;;;3.57;56.37
74936;BME280;63501;55.570;37.488;2023-05-07T05:24:29;100226.53;;;3.62;56.26
74936;BME280;63501;55.570;37.488;2023-05-07T05:26:59;100235.19;;;3.72;55.89
74936;BME280;63501;55.570;37.488;2023-05-07T05:29:26;100233.91;;;3.79;55.46
74936;BME280;63501;55.570;37.488;2023-05-07T05:31:53;100237.09;;;3.89;55.60
74936;BME280;63501;55.570;37.488;2023-05-07T05:34:21;100235.31;;;3.93;54.87
74936;BME280;63501;55.570;37.488;2023-05-07T05:36:49;100235.47;;;3.88;53.98
74936;BME280;63501;55.570;37.488;2023-05-07T05:39:17;100242.25;;;3.82;53.15
74936;BME280;63501;55.570;37.488;2023-05-07T05:41:44;100239.19;;;3.84;53.30
74936;BME280;63501;55.570;37.488;2023-05-07T05:44:12;100228.88;;;3.89;52.84
74936;BME280;63501;55.570;37.488;2023-05-07T05:46:39;100241.25;;;3.87;52.05
74936;BME280;63501;55.570;37.488;2023-05-07T05:49:06;100246.72;;;3.87;52.64
74936;BME280;63501;55.570;37.488;2023-05-07T05:51:33;100243.13;;;4.04;52.22
74936;BME280;63501;55.570;37.488;2023-05-07T05:54:02;100248.56;;;4.21;51.43
74936;BME280;63501;55.570;37.488;2023-05-07T05:56:30;100246.22;;;4.32;51.40
74936;BME280;63501;55.570;37.488;2023-05-07T05:58:57;100250.25;;;4.34;50.88
74936;BME280;63501;55.570;37.488;2023-05-07T06:01:24;100258.31;;;4.31;50.83
74936;BME280;63501;55.570;37.488;2023-05-07T06:03:51;100252.28;;;4.16;50.86
74936;BME280;63501;55.570;37.488;2023-05-07T06:06:18;100254.84;;;4.13;51.27
74936;BME280;63501;55.570;37.488;2023-05-07T06:08:45;100259.41;;;4.00;51.21
74936;BME280;63501;55.570;37.488;2023-05-07T06:11:14;100261.75;;;4.19;50.90
74936;BME280;63501;55.570;37.488;2023-05-07T06:13:41;100256.41;;;4.61;50.27
74936;BME280;63501;55.570;37.488;2023-05-07T06:16:08;100264.38;;;4.95;49.84
74936;BME280;63501;55.570;37.488;2023-05-07T06:18:35;100251.41;;;5.25;49.47
74936;BME280;63501;55.570;37.488;2023-05-07T06:21:02;100250.00;;;5.40;48.94
74936;BME280;63501;55.570;37.488;2023-05-07T06:23:29;100253.38;;;5.37;48.62
74936;BME280;63501;55.570;37.488;2023-05-07T06:25:56;100252.00;;;5.10;48.86
74936;BME280;63501;55.570;37.488;2023-05-07T06:28:25;100258.09;;;4.95;48.97
74936;BME280;63501;55.570;37.488;2023-05-07T06:30:53;100252.69;;;4.86;48.97
74936;BME280;63501;55.570;37.488;2023-05-07T06:33:20;100255.56;;;4.90;48.72
74936;BME280;63501;55.570;37.488;2023-05-07T06:35:47;100256.75;;;4.80;48.19
74936;BME280;63501;55.570;37.488;2023-05-07T06:38:14;100255.25;;;4.62;48.65
74936;BME280;63501;55.570;37.488;2023-05-07T06:40:41;100255.94;;;4.80;48.32
74936;BME280;63501;55.570;37.488;2023-05-07T06:43:08;100257.13;;;4.99;47.62
74936;BME280;63501;55.570;37.488;2023-05-07T06:45:36;100253.81;;;4.85;47.64
74936;BME280;63501;55.570;37.488;2023-05-07T06:48:04;100258.72;;;4.71;47.64
74936;BME280;63501;55.570;37.488;2023-05-07T06:50:31;100249.41;;;4.72;47.31
74936;BME280;63501;55.570;37.488;2023-05-07T06:52:58;100253.94;;;4.68;47.22
74936;BME280;63501;55.570;37.488;2023-05-07T06:55:25;100263.13;;;4.63;47.37
74936;BME280;63501;55.570;37.488;2023-05-07T06:57:52;100262.81;;;4.65;46.81
74936;BME280;63501;55.570;37.488;2023-05-07T07:00:20;100252.59;;;4.74;46.58
74936;BME280;63501;55.570;37.488;2023-05-07T07:02:48;100254.16;;;5.04;46.12
74936;BME280;63501;55.570;37.488;2023-05-07T07:05:15;100253.13;;;5.51;45.70
74936;BME280;63501;55.570;37.488;2023-05-07T07:07:42;100250.66;;;5.70;45.11
74936;BME280;63501;55.570;37.488;2023-05-07T07:10:10;100247.53;;;5.93;44.50
74936;BME280;63501;55.570;37.488;2023-05-07T07:12:37;100259.34;;;6.18;44.29
74936;BME280;63501;55.570;37.488;2023-05-07T07:15:05;100250.88;;;6.10;44.61
74936;BME280;63501;55.570;37.488;2023-05-07T07:17:32;100257.72;;;5.92;44.72
74936;BME280;63501;55.570;37.488;2023-05-07T07:20:00;100257.53;;;5.76;45.03
74936;BME280;63501;55.570;37.488;2023-05-07T07:22:29;100261.53;;;5.79;44.86
74936;BME280;63501;55.570;37.488;2023-05-07T07:24:56;100251.56;;;5.95;44.04
74936;BME280;63501;55.570;37.488;2023-05-07T07:27:24;100260.03;;;6.15;43.66
74936;BME280;63501;55.570;37.488;2023-05-07T07:29:51;100255.69;;;6.14;42.94
74936;BME280;63501;55.570;37.488;2023-05-07T07:32:18;100264.38;;;6.03;43.04
74936;BME280;63501;55.570;37.488;2023-05-07T07:34:45;100257.06;;;6.07;42.44
74936;BME280;63501;55.570;37.488;2023-05-07T07:37:14;100257.94;;;5.99;42.74
74936;BME280;63501;55.570;37.488;2023-05-07T07:39:41;100257.19;;;6.23;42.56
74936;BME280;63501;55.570;37.488;2023-05-07T07:42:08;100241.41;;;6.57;41.81
74936;BME280;63501;55.570;37.488;2023-05-07T07:44:35;100245.91;;;6.89;41.57
74936;BME280;63501;55.570;37.488;2023-05-07T07:47:02;100239.19;;;7.15;40.99
74936;BME280;63501;55.570;37.488;2023-05-07T07:49:29;100237.91;;;7.25;40.28
74936;BME280;63501;55.570;37.488;2023-05-07T07:51:56;100234.88;;;7.42;40.04
74936;BME280;63501;55.570;37.488;2023-05-07T07:54:26;100243.25;;;7.61;39.75
74936;BME280;63501;55.570;37.488;2023-05-07T07:56:54;100229.59;;;7.65;39.90
74936;BME280;63501;55.570;37.488;2023-05-07T07:59:21;100237.50;;;7.82;39.83
74936;BME280;63501;55.570;37.488;2023-05-07T08:01:48;100225.97;;;7.92;39.10
74936;BME280;63501;55.570;37.488;2023-05-07T08:06:45;100238.16;;;8.23;38.86
74936;BME280;63501;55.570;37.488;2023-05-07T08:09:12;100223.94;;;8.05;38.67
74936;BME280;63501;55.570;37.488;2023-05-07T08:11:40;100236.00;;;7.85;38.98
74936;BME280;63501;55.570;37.488;2023-05-07T08:14:08;100235.63;;;7.71;38.93
74936;BME280;63501;55.570;37.488;2023-05-07T08:16:35;100233.53;;;7.52;39.10
74936;BME280;63501;55.570;37.488;2023-05-07T08:19:02;100237.75;;;7.33;38.97
74936;BME280;63501;55.570;37.488;2023-05-07T08:21:29;100243.75;;;7.23;38.72
74936;BME280;63501;55.570;37.488;2023-05-07T08:23:56;100241.25;;;7.18;39.29
74936;BME280;63501;55.570;37.488;2023-05-07T08:26:23;100233.47;;;7.20;38.68
74936;BME280;63501;55.570;37.488;2023-05-07T08:28:51;100236.41;;;7.27;38.54
74936;BME280;63501;55.570;37.488;2023-05-07T08:31:18;100237.94;;;7.40;38.33
74936;BME280;63501;55.570;37.488;2023-05-07T08:33:45;100237.66;;;7.74;38.21
74936;BME280;63501;55.570;37.488;2023-05-07T08:36:12;100229.78;;;7.88;37.19
74936;BME280;63501;55.570;37.488;2023-05-07T08:38:39;100230.03;;;8.30;36.65
74936;BME280;63501;55.570;37.488;2023-05-07T08:41:10;100226.66;;;8.53;36.54
74936;BME280;63501;55.570;37.488;2023-05-07T08:43:38;100228.03;;;8.43;36.37
74936;BME280;63501;55.570;37.488;2023-05-07T08:46:09;100227.38;;;8.34;36.64
74936;BME280;63501;55.570;37.488;2023-05-07T08:48:37;100225.69;;;8.13;36.45
74936;BME280;63501;55.570;37.488;2023-05-07T08:51:05;100236.38;;;7.99;37.14
74936;BME280;63501;55.570;37.488;2023-05-07T08:53:33;100238.13;;;7.76;36.57
74936;BME280;63501;55.570;37.488;2023-05-07T08:56:00;100226.75;;;8.56;35.76
74936;BME280;63501;55.570;37.488;2023-05-07T08:58:27;100213.69;;;9.66;35.10
74936;BME280;63501;55.570;37.488;2023-05-07T09:00:54;100220.88;;;10.16;34.56
74936;BME280;63501;55.570;37.488;2023-05-07T09:03:23;100220.66;;;10.51;34.07
74936;BME280;63501;55.570;37.488;2023-05-07T09:05:50;100218.84;;;10.13;34.55
74936;BME280;63501;55.570;37.488;2023-05-07T09:08:17;100205.03;;;11.56;33.20
74936;BME280;63501;55.570;37.488;2023-05-07T09:10:44;100197.47;;;13.08;32.37
74936;BME280;63501;55.570;37.488;2023-05-07T09:13:11;100187.44;;;12.82;32.22
74936;BME280;63501;55.570;37.488;2023-05-07T09:15:40;100204.34;;;12.07;32.28
74936;BME280;63501;55.570;37.488;2023-05-07T09:18:07;100213.81;;;11.28;32.76
74936;BME280;63501;55.570;37.488;2023-05-07T09:20:36;100214.44;;;10.58;32.94
74936;BME280;63501;55.570;37.488;2023-05-07T09:23:03;100229.03;;;10.09;33.30
74936;BME280;63501;55.570;37.488;2023-05-07T09:25:31;100229.19;;;9.74;33.63
74936;BME280;63501;55.570;37.488;2023-05-07T09:27:58;100227.56;;;9.50;33.89
74936;BME280;63501;55.570;37.488;2023-05-07T09:30:27;100228.88;;;9.37;33.24
74936;BME280;63501;55.570;37.488;2023-05-07T09:32:55;100221.94;;;9.43;33.56
74936;BME280;63501;55.570;37.488;2023-05-07T09:35:23;100219.34;;;10.68;32.15
74936;BME280;63501;55.570;37.488;2023-05-07T09:37:55;100210.88;;;12.91;30.77
74936;BME280;63501;55.570;37.488;2023-05-07T09:40:23;100188.53;;;14.75;29.84
74936;BME280;63501;55.570;37.488;2023-05-07T09:42:50;100178.03;;;15.92;29.57
74936;BME280;63501;55.570;37.488;2023-05-07T09:45:21;100186.88;;;15.10;28.70
74936;BME280;63501;55.570;37.488;2023-05-07T09:47:53;100190.97;;;13.87;29.66
74936;BME280;63501;55.570;37.488;2023-05-07T09:50:22;100196.41;;;13.34;29.46
74936;BME280;63501;55.570;37.488;2023-05-07T09:52:54;100196.59;;;12.86;29.60
74936;BME280;63501;55.570;37.488;2023-05-07T09:55:22;100182.22;;;14.24;27.72
74936;BME280;63501;55.570;37.488;2023-05-07T09:57:50;100185.41;;;15.57;27.77
74936;BME280;63501;55.570;37.488;2023-05-07T10:00:18;100189.97;;;15.22;26.77
74936;BME280;63501;55.570;37.488;2023-05-07T10:02:49;100188.47;;;15.84;26.00
74936;BME280;63501;55.570;37.488;2023-05-07T10:05:17;100189.22;;;15.88;26.28
74936;BME280;63501;55.570;37.488;2023-05-07T10:07:45;100180.16;;;14.89;27.00
74936;BME280;63501;55.570;37.488;2023-05-07T10:10:14;100194.16;;;13.75;27.18
74936;BME280;63501;55.570;37.488;2023-05-07T10:12:42;100199.06;;;13.09;27.77
74936;BME280;63501;55.570;37.488;2023-05-07T10:15:10;100201.84;;;12.43;28.12
74936;BME280;63501;55.570;37.488;2023-05-07T10:17:38;100214.44;;;11.85;28.64
74936;BME280;63501;55.570;37.488;2023-05-07T10:20:07;100214.38;;;11.45;28.62
74936;BME280;63501;55.570;37.488;2023-05-07T10:22:38;100225.16;;;11.20;28.65
74936;BME280;63501;55.570;37.488;2023-05-07T10:25:07;100222.81;;;11.22;28.86
74936;BME280;63501;55.570;37.488;2023-05-07T10:27:38;100216.09;;;11.94;28.45
74936;BME280;63501;55.570;37.488;2023-05-07T10:30:15;100203.31;;;12.88;27.67
74936;BME280;63501;55.570;37.488;2023-05-07T10:32:49;100204.63;;;13.09;27.38
74936;BME280;63501;55.570;37.488;2023-05-07T10:35:19;100201.03;;;13.05;28.17
74936;BME280;63501;55.570;37.488;2023-05-07T10:37:48;100201.63;;;12.73;28.05
74936;BME280;63501;55.570;37.488;2023-05-07T10:40:15;100208.13;;;12.33;28.02
74936;BME280;63501;55.570;37.488;2023-05-07T10:42:58;100214.81;;;11.84;28.16
74936;BME280;63501;55.570;37.488;2023-05-07T10:45:26;100218.41;;;11.51;28.47
74936;BME280;63501;55.570;37.488;2023-05-07T10:48:09;100219.09;;;11.44;28.33
74936;BME280;63501;55.570;37.488;2023-05-07T10:50:37;100211.50;;;11.71;28.05
74936;BME280;63501;55.570;37.488;2023-05-07T10:53:24;100212.22;;;12.02;27.88
74936;BME280;63501;55.570;37.488;2023-05-07T10:56:24;100215.06;;;12.09;28.03
74936;BME280;63501;55.570;37.488;2023-05-07T10:58:53;100224.25;;;11.79;27.94
74936;BME280;63501;55.570;37.488;2023-05-07T11:01:49;100222.44;;;11.57;27.95
74936;BME280;63501;55.570;37.488;2023-05-07T11:04:16;100227.19;;;11.56;28.17
74936;BME280;63501;55.570;37.488;2023-05-07T11:07:24;100208.69;;;13.26;26.89
74936;BME280;63501;55.570;37.488;2023-05-07T11:09:56;100202.94;;;15.57;26.01
74936;BME280;63501;55.570;37.488;2023-05-07T11:12:50;100190.25;;;16.95;24.71
74936;BME280;63501;55.570;37.488;2023-05-07T11:15:42;100187.44;;;16.98;24.74
74936;BME280;63501;55.570;37.488;2023-05-07T11:18:11;100196.13;;;15.69;25.72
74936;BME280;63501;55.570;37.488;2023-05-07T11:20:51;100214.06;;;14.48;26.41
74936;BME280;63501;55.570;37.488;2023-05-07T11:26:46;100214.56;;;12.48;27.04
74936;BME280;63501;55.570;37.488;2023-05-07T11:29:15;100218.88;;;11.94;27.24
74936;BME280;63501;55.570;37.488;2023-05-07T11:31:44;100218.44;;;11.54;27.45
74936;BME280;63501;55.570;37.488;2023-05-07T11:34:15;100232.00;;;11.29;27.77
74936;BME280;63501;55.570;37.488;2023-05-07T11:36:47;100231.44;;;11.17;28.00
74936;BME280;63501;55.570;37.488;2023-05-07T11:39:29;100232.94;;;11.10;27.52
74936;BME280;63501;55.570;37.488;2023-05-07T11:41:57;100233.25;;;11.02;27.84
74936;BME280;63501;55.570;37.488;2023-05-07T11:44:24;100234.41;;;11.01;27.87
74936;BME280;63501;55.570;37.488;2023-05-07T11:46:52;100227.66;;;10.98;27.65
74936;BME280;63501;55.570;37.488;2023-05-07T11:49:20;100242.88;;;10.85;28.02
74936;BME280;63501;55.570;37.488;2023-05-07T11:51:47;100240.75;;;10.75;27.61
74936;BME280;63501;55.570;37.488;2023-05-07T11:54:17;100244.97;;;10.65;28.20
74936;BME280;63501;55.570;37.488;2023-05-07T11:56:44;100238.94;;;10.59;27.71
74936;BME280;63501;55.570;37.488;2023-05-07T11:59:17;100244.00;;;10.54;27.75
74936;BME280;63501;55.570;37.488;2023-05-07T12:01:46;100243.47;;;10.45;27.96
74936;BME280;63501;55.570;37.488;2023-05-07T12:04:19;100244.03;;;10.31;27.78
74936;BME280;63501;55.570;37.488;2023-05-07T12:06:47;100235.16;;;10.98;27.43
74936;BME280;63501;55.570;37.488;2023-05-07T12:09:16;100220.63;;;12.67;26.61
74936;BME280;63501;55.570;37.488;2023-05-07T12:11:46;100221.75;;;13.21;26.54
74936;BME280;63501;55.570;37.488;2023-05-07T12:14:13;100211.72;;;13.06;26.58
74936;BME280;63501;55.570;37.488;2023-05-07T12:16:41;100204.41;;;12.69;26.68
74936;BME280;63501;55.570;37.488;2023-05-07T12:19:09;100219.19;;;12.33;27.21
74936;BME280;63501;55.570;37.488;2023-05-07T12:21:39;100215.34;;;11.97;27.11
74936;BME280;63501;55.570;37.488;2023-05-07T12:24:08;100220.00;;;11.52;27.36
74936;BME280;63501;55.570;37.488;2023-05-07T12:26:37;100219.22;;;11.21;27.98
74936;BME280;63501;55.570;37.488;2023-05-07T12:29:06;100229.69;;;11.01;27.69
74936;BME280;63501;55.570;37.488;2023-05-07T12:31:33;100230.91;;;10.77;27.98
74936;BME280;63501;55.570;37.488;2023-05-07T12:34:00;100230.06;;;10.73;27.60
74936;BME280;63501;55.570;37.488;2023-05-07T12:36:36;100233.25;;;10.75;27.71
74936;BME280;63501;55.570;37.488;2023-05-07T12:39:05;100234.88;;;11.06;27.52
74936;BME280;63501;55.570;37.488;2023-05-07T12:41:36;100214.75;;;12.21;26.99
74936;BME280;63501;55.570;37.488;2023-05-07T12:44:04;100214.91;;;13.05;26.46
74936;BME280;63501;55.570;37.488;2023-05-07T12:46:31;100206.47;;;13.92;26.00
74936;BME280;63501;55.570;37.488;2023-05-07T12:48:58;100202.47;;;14.64;25.12
74936;BME280;63501;55.570;37.488;2023-05-07T12:51:27;100200.91;;;14.67;25.64
74936;BME280;63501;55.570;37.488;2023-05-07T12:53:56;100193.38;;;14.10;25.72
74936;BME280;63501;55.570;37.488;2023-05-07T12:56:25;100210.31;;;13.44;26.00
74936;BME280;63501;55.570;37.488;2023-05-07T12:58:57;100212.00;;;12.80;25.96